Terminal Aerodrome Forecast
Issued by NWS

Home | Current Version | Previous Version | Text Only | Print | Product List | Glossary On
Versions: 1 2 3 4 5 6 7 8 9 10 11 12 13 14 15 16 17 18 19 20 21 22 23 24 25
961
FTUS42 KJAX 272339
TAFVQQ
TAF
KVQQ 272339Z 2800/2824 VRB03KT P6SM SCT050 BKN250
     FM281000 VRB03KT 4SM BR SCT004
     FM281300 25007KT P6SM SCT025 BKN040
     FM281900 24007KT P6SM VCTS SCT030CB BKN050=

USA.gov is the U.S. government's official web portal to all federal, state and local government web resources and services.